• Join FlightAware (Why Join?)
  • Login
  • US Flag 
06:09AM EDT


 

Airport Tracker/Info


-or-


 

Live Flight TrackerFlight Track Log ✈ AAL832 ✈ 16-Aug-2013 ✈ KLAX - KORD

Flight Track Log - Related Links

Times and Time Zones

All times are in EDT time to prevent confusion due to time zone crossing. See the AAL832 flight status page for this flight to view local times or setup timezone preferences in your user account.

Time Position Orientation Groundspeed Altitude Reporting Facility
EDT Latitude Longitude Course Direction KTS MPH feet Rate Location/Type
12:47PM 33.9333 -118.4500 46° Northeast 187 215 1,500  Level Southern California TRACON
12:48PM 33.9081 -118.5392 251° West 241 277 3,800 2,340 Climbing Los Angeles Center
12:49PM 33.8686 -118.6147 238° Southwest 258 297 6,900 2,520 Climbing Los Angeles Center
12:50PM 34.1838 -117.9659 59° Northeast  Level FlightAware Approximate
12:50PM 33.8181 -118.5733 146° Southeast 275 316 9,100  Level Los Angeles Center
12:51PM 34.2463 -117.8407 59° Northeast  Level FlightAware Approximate
12:51PM 33.8800 -118.4811 51° Northeast 332 382 11,200  Level Los Angeles Center
12:52PM 34.3235 -117.7290 46° Northeast  Level FlightAware Approximate
12:52PM 33.9439 -118.4136 41° Northeast 354 407 12,700  Level Los Angeles Center
12:53PM 34.0189 -118.2847 55° Northeast 388 447 15,100 2,340 Climbing Los Angeles Center
12:55PM 34.0814 -118.1744 56° Northeast 396 456 17,600 2,220 Climbing Los Angeles Center
12:56PM 34.1542 -118.0708 50° Northeast 404 465 19,700 1,860 Climbing Los Angeles Center
12:57PM 34.2281 -117.9642 50° Northeast 412 474 21,500 1,620 Climbing Los Angeles Center
12:58PM 34.3042 -117.8539 50° Northeast 424 488 23,100 1,620 Climbing Los Angeles Center
12:59PM 34.3869 -117.7322 50° Northeast 435 501 24,900 1,440 Climbing Los Angeles Center
01:00PM 34.4650 -117.6158 51° Northeast 443 510 26,200 1,200 Climbing Los Angeles Center
01:01PM 34.5453 -117.4961 51° Northeast 456 525 27,400 1,200 Climbing Los Angeles Center
01:02PM 34.6431 -117.3500 51° Northeast 466 536 28,700 1,080 Climbing Los Angeles Center
01:03PM 34.7278 -117.2253 50° Northeast 479 551 29,700 1,140 Climbing Los Angeles Center
01:04PM 34.8122 -117.0986 51° Northeast 485 558 31,100 1,200 Climbing Los Angeles Center
01:05PM 34.8967 -116.9722 51° Northeast 483 556 32,200 960 Climbing Los Angeles Center
01:06PM 34.9814 -116.8450 51° Northeast 486 559 33,200 960 Climbing Los Angeles Center
01:07PM 35.0853 -116.6897 51° Northeast 494 568 34,300 960 Climbing Los Angeles Center
01:08PM 35.1708 -116.5597 51° Northeast 494 568 35,300 900 Climbing Los Angeles Center
01:09PM 35.2553 -116.4317 51° Northeast 487 560 36,200 780 Climbing Los Angeles Center
01:10PM 35.3406 -116.3033 51° Northeast 487 560 37,000 360 Climbing Los Angeles Center
01:11PM 35.4231 -116.1736 52° Northeast 484 557 37,000  Level Los Angeles Center
01:12PM 35.5419 -115.9944 51° Northeast 484 557 37,000  Level Los Angeles Center
01:13PM 35.6158 -115.8800 52° Northeast 478 550 37,000  Level Los Angeles Center
01:14PM 35.7161 -115.7247 51° Northeast 483 556 37,000  Level Los Angeles Center
01:15PM 35.7989 -115.5956 52° Northeast 483 556 37,000  Level Los Angeles Center
01:16PM 35.8828 -115.4667 51° Northeast 486 559 37,000  Level Los Angeles Center
01:17PM 35.9658 -115.3356 52° Northeast 489 563 37,000  Level Los Angeles Center
01:19PM 36.0489 -115.2069 51° Northeast 485 558 37,000  Level Los Angeles Center
01:20PM 36.1358 -115.0364 58° Northeast 494 568 37,000  Level Los Angeles Center
01:21PM 36.2044 -114.8903 60° Northeast 495 570 37,000  Level Los Angeles Center
01:22PM 36.2714 -114.7444 60° Northeast 492 566 37,000  Level Los Angeles Center
01:23PM 36.3400 -114.5981 60° Northeast 492 566 37,000  Level Los Angeles Center
01:24PM 36.4044 -114.4500 62° Northeast 491 565 37,000  Level Los Angeles Center
01:25PM 36.4556 -114.2575 72° East 490 564 37,000  Level Los Angeles Center
01:26PM 36.4994 -114.0983 71° East 488 562 37,000  Level Los Angeles Center
01:27PM 36.5397 -113.9536 71° East 487 560 37,000  Level Los Angeles Center
01:28PM 36.5908 -113.7631 71° East 486 559 37,000  Level Los Angeles Center
01:29PM 36.6339 -113.6053 71° East 484 557 37,000  Level Los Angeles Center
01:30PM 36.6761 -113.4450 72° East 487 560 37,000  Level Los Angeles Center
01:31PM 36.7181 -113.2856 72° East 488 562 37,000  Level Los Angeles Center
01:32PM 36.7606 -113.1267 71° East 487 560 37,000  Level Los Angeles Center
01:33PM 36.8100 -112.9350 72° East 487 560 37,000  Level Los Angeles Center
01:34PM 36.8528 -112.7750 71° East 490 564 37,000  Level Los Angeles Center
01:35PM 36.8931 -112.6147 73° East 488 562 37,000  Level Los Angeles Center
01:36PM 36.9331 -112.4567 72° East 482 555 37,000  Level Los Angeles Center
01:37PM 36.9747 -112.2992 72° East 481 554 37,000  Level Los Angeles Center
01:38PM 37.0225 -112.1086 73° East 481 554 37,000  Level Los Angeles Center
01:39PM 37.0628 -111.9503 72° East 480 552 37,000  Level Los Angeles Center
01:40PM 37.1017 -111.7919 73° East 479 551 37,000  Level Los Angeles Center
01:41PM 37.1417 -111.6339 72° East 478 550 37,000  Level Los Angeles Center
01:42PM 37.1819 -111.4731 73° East 483 556 37,000  Level Los Angeles Center
01:43PM 37.2214 -111.3133 73° East 482 555 37,000  Level Los Angeles Center
01:45PM 37.2747 -111.0878 73° East 485 558 37,000  Level Denver Center
01:46PM 37.3147 -110.9250 73° East 488 562 37,000  Level Denver Center
01:47PM 37.3619 -110.7292 73° East 490 564 37,000  Level Denver Center
01:48PM 37.3994 -110.5672 74° East 486 559 37,000  Level Denver Center
01:49PM 37.4375 -110.4067 73° East 482 555 37,000  Level Denver Center
01:50PM 37.4756 -110.2450 73° East 484 557 37,000  Level Denver Center
01:51PM 37.5178 -110.0636 74° East 482 555 37,000  Level Denver Center
01:52PM 37.5544 -109.9078 73° East 483 556 37,000  Level Denver Center
01:53PM 37.5953 -109.7294 74° East 476 548 37,000  Level Denver Center
01:54PM 37.6297 -109.5769 74° East 472 543 37,000  Level Denver Center
01:55PM 37.6714 -109.3983 74° East 474 545 37,000  Level Denver Center
01:56PM 37.7122 -109.2181 74° East 476 548 37,000  Level Denver Center
01:57PM 37.7517 -109.0375 75° East 477 549 37,000  Level Denver Center
01:58PM 37.7853 -108.8817 75° East 478 550 37,000  Level Denver Center
01:59PM 37.8247 -108.7028 74° East 474 545 37,000  Level Denver Center
02:00PM 37.8589 -108.5467 74° East 477 549 37,000  Level Denver Center
02:02PM 37.8975 -108.3678 75° East 475 547 37,000  Level Denver Center
02:03PM 37.9306 -108.2114 75° East 478 550 37,000  Level Denver Center
02:04PM 37.9692 -108.0294 75° East 478 550 37,000  Level Denver Center
02:05PM 38.0025 -107.8761 75° East 474 545 37,000  Level Denver Center
02:06PM 38.0406 -107.6928 75° East 478 550 37,000  Level Denver Center
02:07PM 38.0719 -107.5367 76° East 478 550 37,000  Level Denver Center
02:08PM 38.1058 -107.3764 75° East 479 551 37,000  Level Denver Center
02:09PM 38.1428 -107.1947 75° East 478 550 37,000  Level Denver Center
02:10PM 38.1728 -107.0481 75° East 476 548 37,000  Level Denver Center
02:11PM 38.2053 -106.8858 76° East 477 549 37,000  Level Denver Center
02:12PM 38.2425 -106.7036 75° East 476 548 37,000  Level Denver Center
02:13PM 38.2783 -106.5208 76° East 478 550 37,000  Level Denver Center
02:14PM 38.3092 -106.3653 76° East 478 550 37,000  Level Denver Center
02:15PM 38.3408 -106.1997 76° East 482 555 37,000  Level Denver Center
02:16PM 38.3750 -106.0256 76° East 480 552 37,000  Level Denver Center
02:17PM 38.4117 -105.8394 76° East 484 557 37,000  Level Denver Center
02:18PM 38.4411 -105.6767 77° East 477 549 37,000  Level Denver Center
02:19PM 38.4725 -105.5122 76° East 478 550 37,000  Level Denver Center
02:20PM 38.5031 -105.3500 76° East 473 544 37,000  Level Denver Center
02:21PM 38.5342 -105.1872 76° East 474 545 37,000  Level Denver Center
02:22PM 38.5692 -104.9928 77° East 468 539 37,000  Level Denver Center
02:23PM 38.5981 -104.8322 77° East 468 539 37,000  Level Denver Center
02:24PM 38.6275 -104.6714 77° East 467 537 37,000  Level Denver Center
02:25PM 38.6567 -104.5081 77° East 469 540 37,000  Level Denver Center
02:26PM 38.6850 -104.3483 77° East 465 535 37,000  Level Denver Center
02:27PM 38.7200 -104.1556 77° East 466 536 37,000  Level Denver Center
02:28PM 38.7469 -103.9958 78° East 454 522 37,000  Level Denver Center
02:29PM 38.7750 -103.8408 77° East 462 532 37,000  Level Denver Center
02:30PM 38.8044 -103.6631 78° East 457 526 37,000  Level Denver Center
02:32PM 38.8303 -103.5097 78° East 458 527 37,000  Level Denver Center
02:33PM 38.8608 -103.3328 77° East 455 524 37,000  Level Denver Center
02:34PM 38.8869 -103.1744 78° East 456 525 37,000  Level Denver Center
02:35PM 38.9122 -103.0172 78° East 453 521 37,000  Level Denver Center
02:36PM 38.9383 -102.8597 78° East 453 521 37,000  Level Denver Center
02:37PM 38.9672 -102.6817 78° East 451 519 37,000  Level Denver Center
02:38PM 38.9928 -102.5292 78° East 454 522 37,000  Level Denver Center
02:39PM 39.0203 -102.3508 79° East 456 525 37,000  Level Denver Center
02:40PM 39.0450 -102.1978 78° East 456 525 37,000  Level Denver Center
02:41PM 39.0683 -102.0447 79° East 455 524 37,000  Level Denver Center
02:42PM 39.0967 -101.8675 78° East 452 520 37,000  Level Denver Center
02:43PM 39.1194 -101.7147 79° East 453 521 37,000  Level Denver Center
02:44PM 39.1450 -101.5372 79° East 453 521 37,000  Level Denver Center
02:45PM 39.1681 -101.3856 79° East 452 520 37,000  Level Denver Center
02:46PM 39.1944 -101.2097 79° East 451 519 37,000  Level Denver Center
02:47PM 39.2175 -101.0581 79° East 451 519 37,000  Level Denver Center
02:48PM 39.2428 -100.8833 79° East 446 513 37,000  Level Denver Center
02:49PM 39.2644 -100.7325 79° East 448 516 37,000  Level Denver Center
02:50PM 39.2889 -100.5578 80° East 444 511 37,000  Level Denver Center
02:51PM 39.3103 -100.4089 79° East 443 510 37,000  Level Denver Center
02:52PM 39.3347 -100.2344 80° East 443 510 37,000  Level Denver Center
02:53PM 39.3550 -100.0847 80° East 442 509 37,000  Level Denver Center
02:54PM 39.3797 -99.9114 79° East 440 506 37,000  Level Denver Center
02:55PM 39.3992 -99.7631 80° East 440 506 37,000  Level Denver Center
02:56PM 39.4219 -99.5919 80° East 436 502 37,000  Level Denver Center
02:57PM 39.4414 -99.4439 80° East 436 502 37,000  Level Denver Center
02:58PM 39.4622 -99.2889 80° East 433 498 37,000  Level Denver Center
03:00PM 39.4861 -99.1028 80° East 437 503 37,000  Level Denver Center
03:01PM 39.5092 -98.9181 81° East 435 501 37,000  Level Denver Center
03:02PM 39.5294 -98.7611 80° East 440 506 37,000  Level Denver Center
03:03PM 39.5492 -98.6061 81° East 439 505 37,000  Level Denver Center
03:04PM 39.5678 -98.4492 81° East 440 506 37,000  Level Denver Center
03:05PM 39.5989 -98.1989 81° East 443 510 37,000  Level Minneapolis Center
03:06PM 39.6178 -98.0428 81° East 440 506 37,100  Climbing Kansas City Center
03:07PM 39.6378 -97.8775 81° East 443 510 37,000 -60 Descending Kansas City Center
03:08PM 39.6553 -97.7264 81° East 436 502 37,000  Level Kansas City Center
03:09PM 39.6722 -97.5681 82° East 442 509 37,000  Level Kansas City Center
03:10PM 39.6911 -97.4103 81° East 443 510 37,000  Level Kansas City Center
03:11PM 39.7097 -97.2514 81° East 445 512 37,000  Level Kansas City Center
03:12PM 39.7278 -97.0958 81° East 443 510 37,000  Level Kansas City Center
03:14PM 39.7489 -96.9067 82° East 440 506 37,000  Level Kansas City Center
03:15PM 39.7647 -96.7431 83° East 444 511 37,000  Level Kansas City Center
03:16PM 39.7811 -96.5939 82° East 437 503 37,000  Level Kansas City Center
03:17PM 39.7986 -96.4342 82° East 438 504 37,000  Level Kansas City Center
03:18PM 39.8142 -96.2781 83° East 437 503 37,000  Level Kansas City Center
03:19PM 39.8331 -96.0950 82° East 435 501 37,000  Level Kansas City Center
03:20PM 39.8486 -95.9425 82° East 440 506 37,000  Level Kansas City Center
03:21PM 39.8642 -95.7911 82° East 440 506 37,000  Level Kansas City Center
03:22PM 39.8817 -95.6108 83° East 446 513 37,000  Level Kansas City Center
03:23PM 39.8967 -95.4564 83° East 447 514 37,000  Level Kansas City Center
03:24PM 39.9142 -95.2753 83° East 449 517 37,000  Level Kansas City Center
03:25PM 39.9286 -95.1192 83° East 451 519 37,000  Level Kansas City Center
03:26PM 39.9453 -94.9356 83° East 454 522 37,000  Level Kansas City Center
03:27PM 39.9592 -94.7786 83° East 454 522 37,000  Level Kansas City Center
03:28PM 39.9764 -94.5953 83° East 455 524 37,000  Level Kansas City Center
03:29PM 39.9894 -94.4383 84° East 455 524 37,000  Level Kansas City Center
03:30PM 40.0031 -94.2814 83° East 454 522 37,000  Level Kansas City Center
03:31PM 40.0189 -94.0981 84° East 456 525 37,000  Level Kansas City Center
03:32PM 40.0292 -93.9475 85° East 458 527 37,000  Level Kansas City Center
03:33PM 40.0461 -93.7525 83° East 456 525 37,000  Level Kansas City Center
03:34PM 40.0583 -93.5900 84° East 455 524 37,000  Level Kansas City Center
03:35PM 40.0717 -93.4256 84° East 458 527 37,000  Level Kansas City Center
03:36PM 40.0847 -93.2617 84° East 458 527 37,000  Level Kansas City Center
03:37PM 40.0981 -93.0964 84° East 461 531 37,000  Level Kansas City Center
03:38PM 40.1197 -92.9103 81° East 459 528 37,000  Level Kansas City Center
03:39PM 40.1661 -92.7608 68° East 461 531 37,000 -360 Level Kansas City Center
03:40PM 40.2164 -92.5853 69° East 461 531 36,300 -780 Descending Kansas City Center
03:41PM 40.2633 -92.4331 68° East 465 535 35,400 -960 Descending Kansas City Center
03:42PM 40.3142 -92.2508 70° East 475 547 34,300 -960 Descending Kansas City Center
03:44PM 40.3600 -92.0900 69° East 478 550 33,400 -660 Descending Kansas City Center
03:45PM 40.4053 -91.9300 70° East 475 547 33,000 -240 Descending Kansas City Center
03:46PM 40.4508 -91.7703 69° East 473 544 33,000  Level Kansas City Center
03:47PM 40.5036 -91.5775 70° East 472 543 33,000  Level Kansas City Center
03:48PM 40.5492 -91.4175 69° East 472 543 33,000  Level Kansas City Center
03:49PM 40.6044 -91.2503 66° East 473 544 33,000  Level Kansas City Center
03:50PM 40.6603 -91.0911 65° Northeast 475 547 33,000  Level Kansas City Center
03:51PM 40.7150 -90.9308 66° East 479 551 33,000  Level Kansas City Center
03:52PM 40.7703 -90.7708 65° Northeast 479 551 33,000  Level Kansas City Center
03:53PM 40.8247 -90.6097 66° East 479 551 33,000 -240 Level Kansas City Center
03:54PM 40.8789 -90.4489 66° East 478 550 32,600 -840 Descending Kansas City Center
03:55PM 40.9700 -90.1722 66° East 480 552 31,000 -1,440 Descending Chicago Center
03:56PM 41.0183 -90.0269 66° East 475 547 29,100 -2,100 Descending Chicago Center
03:57PM 41.0692 -89.8708 67° East 459 528 26,700 -2,280 Descending Chicago Center
03:58PM 41.1181 -89.7206 67° East 443 510 24,400 -2,040 Descending Chicago Center
03:59PM 41.1639 -89.5778 67° East 424 488 22,500 -1,500 Descending Chicago Center
04:01PM 41.2239 -89.4311 61° Northeast 379 436 21,400 -1,260 Descending Chicago Center
04:02PM 41.2700 -89.3178 62° Northeast 357 411 19,900 -1,740 Descending Chicago Center
04:03PM 41.3136 -89.2089 62° Northeast 342 394 17,900 -1,860 Descending Chicago Center
04:04PM 41.3542 -89.1036 63° Northeast 323 372 16,100 -1,920 Descending Chicago Center
04:05PM 41.3964 -89.0008 61° Northeast 318 366 14,000 -1,920 Descending Chicago Center
04:06PM 41.4358 -88.9008 62° Northeast 311 358 12,200 -1,500 Descending Chicago Center
04:07PM 41.4811 -88.7875 62° Northeast 295 339 11,000 -600 Descending Chicago Center
04:08PM 41.5172 -88.6936 63° Northeast 288 331 11,000  Level Chicago Center
04:09PM 41.5544 -88.6000 62° Northeast 288 331 11,000 -360 Level Chicago Center
04:10PM 41.5886 -88.5042 64° Northeast 287 330 10,300 -1,020 Descending Chicago Center
04:11PM 41.6175 -88.4094 68° East 278 320 8,900 -1,140 Descending Chicago Center
04:12PM 41.6469 -88.3156 67° East 273 314 8,000 -480 Descending Chicago Center
04:13PM 41.6881 -88.2097 62° Northeast 270 311 8,000 -720 Level Chicago Center
04:14PM 41.7456 -88.1433 41° Northeast 273 314 6,600 -1,020 Descending Chicago Center
04:15PM 41.7997 -88.0808 41° Northeast 263 303 5,900 -900 Descending Chicago Center
04:16PM 41.8461 -88.0278 40° Northeast 231 266 4,800 -1,680 Descending Chicago Center
04:17PM 41.9000 -87.9667 40° Northeast 178 205 2,300 -1,620 Descending Chicago TRACON
04:18PM 41.9167 -87.9333 56° Northeast 154 177 1,500 -900 Descending Chicago TRACON